Time;durP1;ratioP1;P1;durP2;ratioP2;P2;SDS_P1;SDS_P2;PMS_P1;PMS_P2;Temp;Humidity;BMP_temperature;BMP_pressure;BME280_temperature;BME280_humidity;BME280_pressure;Samples;Min_cycle;Max_cycle;Signal;HPM_P1;HPM_P2
2022/03/11 00:01:04;;;;;;;1.50;1.23;;;8.80;66.60;;;;;;5086135;28;20460;-73
2022/03/11 00:03:31;;;;;;;1.50;1.30;;;8.90;66.60;;;;;;5086586;28;20534;-73
2022/03/11 00:05:58;;;;;;;1.47;1.20;;;8.90;66.50;;;;;;5081000;28;20743;-73
2022/03/11 00:08:25;;;;;;;1.50;1.17;;;8.90;66.50;;;;;;5082048;28;20452;-73
2022/03/11 00:10:52;;;;;;;1.47;1.20;;;8.90;66.30;;;;;;5084252;28;20464;-73
2022/03/11 00:13:20;;;;;;;1.50;1.20;;;8.90;66.40;;;;;;5087550;28;20460;-73
2022/03/11 00:15:46;;;;;;;1.43;1.20;;;8.90;66.20;;;;;;5085348;28;20488;-73
2022/03/11 00:18:13;;;;;;;1.50;1.20;;;8.90;66.40;;;;;;5085903;28;21100;-73
2022/03/11 00:20:40;;;;;;;1.40;1.20;;;8.80;66.20;;;;;;5080130;28;20471;-73
2022/03/11 00:23:07;;;;;;;1.73;1.63;;;8.90;66.20;;;;;;5085430;28;20818;-72
2022/03/11 00:25:34;;;;;;;2.73;2.53;;;8.80;66.00;;;;;;5086834;28;20495;-73
2022/03/11 00:28:00;;;;;;;1.43;1.10;;;8.80;65.90;;;;;;5084276;28;20464;-73
2022/03/11 00:30:29;;;;;;;1.50;1.37;;;8.80;65.90;;;;;;5087058;28;20465;-73
2022/03/11 00:32:56;;;;;;;1.50;1.10;;;8.90;65.80;;;;;;5088118;28;20741;-73
2022/03/11 00:35:23;;;;;;;1.50;1.30;;;8.90;65.80;;;;;;5082907;28;20485;-73
2022/03/11 00:37:49;;;;;;;2.33;2.13;;;8.90;65.70;;;;;;5083210;28;20472;-73
2022/03/11 00:40:16;;;;;;;1.43;1.20;;;8.90;65.70;;;;;;5087082;28;20467;-73
2022/03/11 00:42:43;;;;;;;1.47;1.23;;;8.90;65.70;;;;;;5082337;28;20452;-73
2022/03/11 00:45:11;;;;;;;1.43;1.20;;;8.90;65.50;;;;;;5087028;28;20487;-73
2022/03/11 00:47:39;;;;;;;1.50;1.20;;;8.90;65.50;;;;;;5086504;28;20465;-73
2022/03/11 00:50:06;;;;;;;1.47;1.20;;;8.90;65.20;;;;;;5086900;28;20468;-73
2022/03/11 00:52:33;;;;;;;1.43;1.20;;;8.90;65.20;;;;;;5086745;28;20856;-73
2022/03/11 00:55:00;;;;;;;1.43;1.20;;;8.90;65.00;;;;;;5086966;28;20484;-73
2022/03/11 00:57:27;;;;;;;1.50;1.20;;;8.90;64.90;;;;;;5091477;28;20588;-73
2022/03/11 00:59:53;;;;;;;1.50;1.10;;;8.90;64.90;;;;;;5082993;28;20472;-73
2022/03/11 01:02:20;;;;;;;1.47;1.20;;;9.00;64.90;;;;;;5087221;28;20460;-73
2022/03/11 01:04:49;;;;;;;1.43;1.10;;;8.90;65.00;;;;;;5082385;28;20487;-73
2022/03/11 01:07:17;;;;;;;1.47;1.17;;;8.90;65.00;;;;;;5093546;28;20956;-73
2022/03/11 01:09:43;;;;;;;1.40;1.20;;;8.90;65.10;;;;;;5091240;28;20783;-73
2022/03/11 01:12:10;;;;;;;1.50;1.10;;;8.90;65.10;;;;;;5092570;28;20477;-73
2022/03/11 01:14:37;;;;;;;1.47;1.20;;;8.90;65.20;;;;;;5087776;28;20481;-73
2022/03/11 01:17:04;;;;;;;1.40;1.20;;;8.90;65.30;;;;;;5094901;28;20464;-73
2022/03/11 01:19:31;;;;;;;1.47;1.20;;;8.80;65.40;;;;;;5093709;28;20471;-73
2022/03/11 01:21:59;;;;;;;1.40;1.17;;;8.80;65.60;;;;;;5092642;28;20460;-73
2022/03/11 01:24:25;;;;;;;2.83;2.53;;;8.80;65.70;;;;;;5090074;28;20566;-73
2022/03/11 01:26:52;;;;;;;1.50;1.20;;;8.80;65.70;;;;;;5093910;28;20952;-74
2022/03/11 01:29:19;;;;;;;4.10;3.90;;;8.70;65.90;;;;;;5094792;28;20475;-73
2022/03/11 01:31:46;;;;;;;1.47;1.20;;;8.70;66.00;;;;;;5093889;28;20563;-73
2022/03/11 01:34:12;;;;;;;1.50;1.30;;;8.70;66.10;;;;;;5090621;28;20480;-73
2022/03/11 01:36:39;;;;;;;1.50;1.20;;;8.60;66.20;;;;;;5081191;28;20929;-73
2022/03/11 01:39:07;;;;;;;3.30;3.10;;;8.60;66.70;;;;;;5094351;28;20460;-73
2022/03/11 01:41:34;;;;;;;1.47;1.20;;;8.60;66.70;;;;;;5093471;28;20471;-73
2022/03/11 01:44:03;;;;;;;1.43;1.10;;;8.60;66.90;;;;;;5093742;28;20537;-73
2022/03/11 01:46:30;;;;;;;1.43;1.20;;;8.50;67.00;;;;;;5094379;28;20465;-73
2022/03/11 01:48:57;;;;;;;1.50;1.40;;;8.50;67.10;;;;;;5094608;28;20490;-73
2022/03/11 01:51:24;;;;;;;1.43;1.20;;;8.50;67.20;;;;;;5091771;28;20472;-73
2022/03/11 01:53:51;;;;;;;1.50;1.30;;;8.50;67.30;;;;;;5091658;28;21011;-73
2022/03/11 01:56:19;;;;;;;1.50;1.20;;;8.40;67.50;;;;;;5087435;28;20472;-73
2022/03/11 01:58:49;;;;;;;3.53;3.23;;;8.40;67.50;;;;;;5088137;28;20894;-73
2022/03/11 02:01:16;;;;;;;1.50;1.20;;;8.40;67.60;;;;;;5086569;28;20460;-73
2022/03/11 02:03:43;;;;;;;1.47;1.20;;;8.40;67.70;;;;;;5081266;28;20462;-73
2022/03/11 02:06:10;;;;;;;1.50;1.20;;;8.40;67.80;;;;;;5083502;28;20460;-73
2022/03/11 02:08:37;;;;;;;1.40;1.10;;;8.40;67.90;;;;;;5092342;28;20498;-73
2022/03/11 02:11:04;;;;;;;1.47;1.20;;;8.40;68.10;;;;;;5089231;28;20460;-73
2022/03/11 02:13:44;;;;;;;1.47;1.30;;;8.30;68.00;;;;;;5087372;28;20835;-74
2022/03/11 02:16:15;;;;;;;1.50;1.40;;;8.30;68.40;;;;;;5084959;28;20511;-73
2022/03/11 02:18:42;;;;;;;1.47;1.20;;;8.30;68.50;;;;;;5091194;28;20469;-73
2022/03/11 02:21:10;;;;;;;1.50;1.40;;;8.30;68.60;;;;;;5089144;28;20488;-73
2022/03/11 02:23:45;;;;;;;1.50;1.20;;;8.30;68.80;;;;;;5090683;28;20465;-73
2022/03/11 02:26:12;;;;;;;1.47;1.23;;;8.30;68.90;;;;;;5086942;28;20460;-73
2022/03/11 02:28:38;;;;;;;1.70;1.60;;;8.30;68.90;;;;;;5087428;28;20456;-73
2022/03/11 02:31:05;;;;;;;1.50;1.30;;;8.30;69.20;;;;;;5070982;28;20473;-73
2022/03/11 02:33:32;;;;;;;1.50;1.20;;;8.20;69.20;;;;;;5084099;28;20485;-74
2022/03/11 02:35:59;;;;;;;1.50;1.20;;;8.20;69.40;;;;;;5083050;28;20976;-73
2022/03/11 02:38:26;;;;;;;1.63;1.53;;;8.20;69.50;;;;;;5089935;28;20461;-73
2022/03/11 02:40:55;;;;;;;1.47;1.20;;;8.10;69.70;;;;;;5088598;28;20464;-73
2022/03/11 02:43:22;;;;;;;1.50;1.20;;;8.10;69.80;;;;;;5089855;28;20463;-73
2022/03/11 02:45:48;;;;;;;1.50;1.20;;;8.10;70.00;;;;;;5084730;28;20479;-73
2022/03/11 02:48:15;;;;;;;3.70;3.40;;;8.10;70.10;;;;;;5090330;28;20867;-73
2022/03/11 02:50:42;;;;;;;1.50;1.20;;;8.00;70.20;;;;;;5088431;28;20960;-73
2022/03/11 02:53:09;;;;;;;1.50;1.30;;;8.00;70.20;;;;;;5089378;28;20488;-75
2022/03/11 02:55:35;;;;;;;1.43;1.20;;;8.00;70.70;;;;;;5083322;28;20487;-73
2022/03/11 02:58:04;;;;;;;1.50;1.40;;;7.90;70.90;;;;;;5089248;28;20494;-73
2022/03/11 03:00:30;;;;;;;1.50;1.23;;;7.90;70.80;;;;;;5087719;28;20460;-73
2022/03/11 03:02:57;;;;;;;2.43;2.23;;;7.90;70.90;;;;;;5090278;28;20920;-73
2022/03/11 03:05:24;;;;;;;3.87;3.67;;;7.80;71.10;;;;;;5079240;28;20496;-73
2022/03/11 03:07:51;;;;;;;1.40;1.20;;;7.80;71.30;;;;;;5085258;28;20456;-74
2022/03/11 03:10:18;;;;;;;1.50;1.30;;;7.80;71.40;;;;;;5088004;28;20471;-73
2022/03/11 03:12:45;;;;;;;1.50;1.20;;;7.80;71.60;;;;;;5088874;28;20561;-73
2022/03/11 03:15:13;;;;;;;1.50;1.30;;;7.80;71.60;;;;;;5083637;28;20872;-73
2022/03/11 03:17:40;;;;;;;1.50;1.20;;;7.70;71.80;;;;;;5087330;28;20468;-73
2022/03/11 03:20:08;;;;;;;1.50;1.20;;;7.70;71.80;;;;;;5087899;28;20465;-73
2022/03/11 03:22:35;;;;;;;1.83;1.73;;;7.80;71.90;;;;;;5089265;28;21092;-73
2022/03/11 03:25:03;;;;;;;1.50;1.30;;;7.70;71.80;;;;;;5083978;28;20492;-73
2022/03/11 03:27:30;;;;;;;1.50;1.33;;;7.70;72.00;;;;;;5088939;28;20472;-73
2022/03/11 03:29:57;;;;;;;2.80;2.27;;;7.70;72.00;;;;;;5086835;28;20467;-73
2022/03/11 03:32:25;;;;;;;4.60;4.20;;;7.70;72.10;;;;;;5087577;28;20488;-73
2022/03/11 03:34:51;;;;;;;1.47;1.20;;;7.70;72.20;;;;;;5087297;28;20487;-73
2022/03/11 03:37:19;;;;;;;1.50;1.40;;;7.70;72.40;;;;;;5082268;28;20979;-73
2022/03/11 03:39:46;;;;;;;1.40;1.20;;;7.70;72.40;;;;;;5088940;28;20548;-73
2022/03/11 03:42:13;;;;;;;4.13;3.83;;;7.70;72.50;;;;;;5088423;28;20468;-73
2022/03/11 03:44:40;;;;;;;1.47;1.20;;;7.70;72.40;;;;;;5082716;28;20892;-73
2022/03/11 03:47:06;;;;;;;1.50;1.20;;;7.60;72.50;;;;;;5088077;28;20476;-73
2022/03/11 03:49:35;;;;;;;1.50;1.30;;;7.60;72.60;;;;;;5087097;28;20468;-73
2022/03/11 03:52:02;;;;;;;1.47;1.20;;;7.60;72.60;;;;;;5087154;28;20518;-73
2022/03/11 03:54:29;;;;;;;10.83;2.40;;;7.60;72.80;;;;;;5088752;28;20591;-73
2022/03/11 03:56:56;;;;;;;1.50;1.30;;;7.60;73.00;;;;;;5083560;28;20461;-73
2022/03/11 03:59:24;;;;;;;1.50;1.20;;;7.50;73.00;;;;;;5087664;28;20475;-73
2022/03/11 04:01:51;;;;;;;1.50;1.20;;;7.50;73.00;;;;;;5088446;28;20914;-73
2022/03/11 04:04:18;;;;;;;1.50;1.40;;;7.50;73.20;;;;;;5083894;28;20530;-73
2022/03/11 04:06:46;;;;;;;1.47;1.20;;;7.50;73.30;;;;;;5075754;28;20507;-73
2022/03/11 04:09:13;;;;;;;4.07;3.40;;;7.50;73.40;;;;;;5088152;28;20504;-74
2022/03/11 04:11:41;;;;;;;1.50;1.30;;;7.40;73.30;;;;;;5087067;28;20468;-73
2022/03/11 04:14:08;;;;;;;2.33;2.17;;;7.40;73.50;;;;;;5087425;28;20537;-73
2022/03/11 04:16:34;;;;;;;1.50;1.20;;;7.40;73.50;;;;;;5088358;28;20496;-73
2022/03/11 04:19:01;;;;;;;1.50;1.20;;;7.40;73.70;;;;;;5088540;28;20472;-73
2022/03/11 04:21:28;;;;;;;1.50;1.30;;;7.30;73.60;;;;;;5087106;28;20551;-73
2022/03/11 04:23:56;;;;;;;3.53;2.70;;;7.30;74.10;;;;;;5082839;28;20531;-73
2022/03/11 04:26:24;;;;;;;1.47;1.27;;;7.30;73.80;;;;;;5084809;22;20505;-72
2022/03/11 04:28:50;;;;;;;1.50;1.40;;;7.20;74.10;;;;;;5067782;28;20457;-69
2022/03/11 04:31:17;;;;;;;1.50;1.20;;;7.20;74.40;;;;;;5063738;28;20461;-70
2022/03/11 04:33:44;;;;;;;1.53;1.40;;;7.20;74.30;;;;;;5068406;28;20481;-71
2022/03/11 04:36:12;;;;;;;1.50;1.30;;;7.20;74.10;;;;;;5065182;28;20480;-70
2022/03/11 04:38:39;;;;;;;1.50;1.30;;;7.20;74.00;;;;;;5060379;28;20489;-70
2022/03/11 04:41:07;;;;;;;1.50;1.30;;;7.20;74.20;;;;;;5066319;28;20989;-70
2022/03/11 04:43:34;;;;;;;1.50;1.20;;;7.10;74.30;;;;;;5067585;28;20462;-70
2022/03/11 04:46:01;;;;;;;2.97;2.77;;;7.10;74.30;;;;;;5067121;28;20560;-72
2022/03/11 04:48:28;;;;;;;1.50;1.20;;;7.10;74.50;;;;;;5061955;28;20465;-71
2022/03/11 04:50:56;;;;;;;1.50;1.20;;;7.00;74.40;;;;;;5066265;28;20896;-69
2022/03/11 04:53:22;;;;;;;1.47;1.20;;;7.00;74.70;;;;;;5056066;28;20543;-70
2022/03/11 04:55:49;;;;;;;1.50;1.30;;;7.00;74.80;;;;;;5058016;28;20477;-71
2022/03/11 04:58:17;;;;;;;1.50;1.33;;;6.90;74.90;;;;;;5067701;28;20473;-70
2022/03/11 05:00:44;;;;;;;1.50;1.27;;;6.90;75.10;;;;;;5066510;28;20464;-71
2022/03/11 05:03:11;;;;;;;1.50;1.20;;;6.90;75.30;;;;;;5065793;28;20496;-72
2022/03/11 05:05:38;;;;;;;1.50;1.20;;;6.80;75.40;;;;;;5054053;28;21139;-72
2022/03/11 05:08:05;;;;;;;2.00;1.90;;;6.80;75.50;;;;;;5065215;28;20461;-70
2022/03/11 05:10:32;;;;;;;1.87;1.77;;;6.80;75.70;;;;;;5065349;28;20468;-70
2022/03/11 05:12:58;;;;;;;1.70;1.60;;;6.80;75.70;;;;;;5067509;28;20488;-71
2022/03/11 05:15:26;;;;;;;1.50;1.30;;;6.70;75.70;;;;;;5067116;28;20481;-69
2022/03/11 05:17:53;;;;;;;2.23;1.87;;;6.70;75.90;;;;;;5066724;28;20823;-71
2022/03/11 05:20:20;;;;;;;1.50;1.20;;;6.70;75.90;;;;;;5057095;28;20873;-71
2022/03/11 05:22:47;;;;;;;1.50;1.30;;;6.60;76.20;;;;;;5066158;28;20465;-72
2022/03/11 05:25:14;;;;;;;1.50;1.20;;;6.60;76.20;;;;;;5067658;28;20515;-71
2022/03/11 05:27:41;;;;;;;1.50;1.30;;;6.60;76.40;;;;;;5064210;28;20465;-69
2022/03/11 05:30:09;;;;;;;1.50;1.20;;;6.60;76.40;;;;;;5066432;28;20930;-69
2022/03/11 05:32:43;;;;;;;1.50;1.30;;;6.60;76.40;;;;;;5067584;28;20890;-69
2022/03/11 05:35:10;;;;;;;1.50;1.20;;;6.50;76.70;;;;;;5052283;28;20514;-72
2022/03/11 05:37:37;;;;;;;1.50;1.40;;;6.50;76.90;;;;;;5062364;28;20959;-69
2022/03/11 05:40:05;;;;;;;1.60;1.50;;;6.40;76.90;;;;;;5063309;28;20468;-70
2022/03/11 05:42:32;;;;;;;1.50;1.40;;;6.40;77.00;;;;;;5066811;28;20457;-69
2022/03/11 05:44:59;;;;;;;1.50;1.30;;;6.40;77.20;;;;;;5068304;28;20478;-71
2022/03/11 05:47:25;;;;;;;1.50;1.40;;;6.40;77.30;;;;;;5070424;28;20459;-68
2022/03/11 05:49:54;;;;;;;1.50;1.30;;;6.30;77.40;;;;;;5070144;28;20465;-71
2022/03/11 05:52:22;;;;;;;1.50;1.40;;;6.30;77.60;;;;;;5067994;28;20472;-71
2022/03/11 05:54:49;;;;;;;1.60;1.50;;;6.30;77.80;;;;;;5066291;28;20480;-72
2022/03/11 05:57:16;;;;;;;1.47;1.20;;;6.20;77.80;;;;;;5070307;28;20465;-72
2022/03/11 05:59:43;;;;;;;1.60;1.50;;;6.20;78.00;;;;;;5059776;28;20826;-70
2022/03/11 06:02:10;;;;;;;1.50;1.20;;;6.20;78.00;;;;;;5066955;28;20461;-71
2022/03/11 06:04:37;;;;;;;1.50;1.23;;;6.20;78.30;;;;;;5067060;28;20458;-71
2022/03/11 06:07:06;;;;;;;1.50;1.30;;;6.10;78.60;;;;;;5061306;28;20458;-71
2022/03/11 06:09:33;;;;;;;1.60;1.50;;;6.10;78.70;;;;;;5068316;28;20461;-74
2022/03/11 06:12:00;;;;;;;1.50;1.20;;;6.10;78.80;;;;;;5070597;28;20552;-76
2022/03/11 06:14:27;;;;;;;1.50;1.30;;;6.00;78.80;;;;;;5070685;28;20493;-72
2022/03/11 06:16:54;;;;;;;1.50;1.37;;;6.00;79.00;;;;;;5067445;28;20489;-72
2022/03/11 06:19:22;;;;;;;1.50;1.37;;;6.00;79.00;;;;;;5069395;28;20556;-71
2022/03/11 06:21:49;;;;;;;1.50;1.30;;;6.00;79.00;;;;;;5069254;28;20465;-71
2022/03/11 06:24:17;;;;;;;3.30;3.00;;;6.00;79.20;;;;;;5065898;28;20470;-69
2022/03/11 06:26:44;;;;;;;1.50;1.30;;;6.00;79.30;;;;;;5069005;28;20516;-70
2022/03/11 06:29:12;;;;;;;1.60;1.50;;;6.00;79.30;;;;;;5069235;28;20462;-70
2022/03/11 06:31:39;;;;;;;1.50;1.40;;;6.00;79.40;;;;;;5066152;28;20469;-70
2022/03/11 06:34:06;;;;;;;1.50;1.27;;;6.00;79.50;;;;;;5062162;28;20848;-70
2022/03/11 06:36:34;;;;;;;1.50;1.30;;;6.00;79.50;;;;;;5057328;28;20485;-68
2022/03/11 06:39:01;;;;;;;1.50;1.30;;;6.00;79.50;;;;;;5063831;28;20829;-68
2022/03/11 06:41:30;;;;;;;1.50;1.30;;;6.10;79.40;;;;;;5059502;28;20465;-70
2022/03/11 06:43:57;;;;;;;1.60;1.50;;;6.10;79.20;;;;;;5055246;28;20450;-69
2022/03/11 06:46:24;;;;;;;1.50;1.30;;;6.20;79.20;;;;;;5068916;28;20477;-71
2022/03/11 06:48:51;;;;;;;2.17;2.07;;;6.20;79.00;;;;;;5070225;28;20834;-67
2022/03/11 06:51:18;;;;;;;12.90;10.70;;;6.20;79.10;;;;;;5067040;28;20466;-68
2022/03/11 06:53:45;;;;;;;1.50;1.30;;;6.30;78.80;;;;;;5068546;28;21040;-69
2022/03/11 06:56:12;;;;;;;1.50;1.30;;;6.30;78.60;;;;;;5067907;28;20545;-68
2022/03/11 06:58:40;;;;;;;2.90;2.70;;;6.40;78.40;;;;;;5068938;28;20467;-68
2022/03/11 07:01:07;;;;;;;4.83;4.53;;;6.40;78.30;;;;;;5067056;28;20488;-68
2022/03/11 07:03:35;;;;;;;2.30;2.10;;;6.40;78.10;;;;;;5067605;28;20459;-68
2022/03/11 07:06:02;;;;;;;1.50;1.20;;;6.50;77.80;;;;;;5063880;28;20490;-71
2022/03/11 07:08:29;;;;;;;8.87;8.33;;;6.60;77.50;;;;;;5058967;28;21312;-73
2022/03/11 07:10:55;;;;;;;2.17;2.00;;;6.70;77.50;;;;;;5065389;28;20877;-73
2022/03/11 07:13:22;;;;;;;1.50;1.27;;;6.70;77.30;;;;;;5068219;28;20831;-71
2022/03/11 07:15:50;;;;;;;1.50;1.30;;;6.80;76.90;;;;;;5063421;28;20496;-73
2022/03/11 07:18:17;;;;;;;2.33;2.13;;;6.80;76.60;;;;;;5063533;28;21134;-71
2022/03/11 07:20:44;;;;;;;1.50;1.37;;;6.80;76.50;;;;;;5067772;28;20461;-69
2022/03/11 07:23:11;;;;;;;1.50;1.20;;;6.90;76.40;;;;;;5067997;28;20457;-69
2022/03/11 07:25:38;;;;;;;1.47;1.30;;;6.90;76.30;;;;;;5065943;28;20550;-69
2022/03/11 07:28:05;;;;;;;1.50;1.30;;;7.00;76.10;;;;;;5065888;28;20934;-69
2022/03/11 07:30:32;;;;;;;1.50;1.20;;;7.10;75.80;;;;;;5060602;28;20453;-69
2022/03/11 07:33:01;;;;;;;1.47;1.20;;;7.20;75.50;;;;;;5069138;28;20938;-69
2022/03/11 07:35:28;;;;;;;1.50;1.27;;;7.20;75.10;;;;;;5061268;28;20505;-69
2022/03/11 07:37:55;;;;;;;1.50;1.30;;;7.30;75.00;;;;;;5053529;28;20470;-68
2022/03/11 07:40:21;;;;;;;1.57;1.47;;;7.30;75.00;;;;;;5052329;28;20969;-70
2022/03/11 07:42:48;;;;;;;3.20;3.00;;;7.40;74.80;;;;;;5060164;28;20477;-71
2022/03/11 07:45:16;;;;;;;1.50;1.10;;;7.50;74.50;;;;;;5064453;28;20507;-70
2022/03/11 07:47:44;;;;;;;2.00;1.80;;;7.70;74.20;;;;;;5063606;28;20496;-70
2022/03/11 07:50:13;;;;;;;1.93;1.83;;;7.80;74.00;;;;;;5063512;28;20473;-70
2022/03/11 07:52:41;;;;;;;1.57;1.40;;;7.90;73.80;;;;;;5060712;28;20457;-71
2022/03/11 07:55:10;;;;;;;1.50;1.20;;;8.00;73.20;;;;;;5063719;28;20873;-69
2022/03/11 07:57:37;;;;;;;1.50;1.30;;;8.00;72.90;;;;;;5062825;28;20461;-71
2022/03/11 08:00:06;;;;;;;1.47;1.20;;;8.10;72.70;;;;;;5062686;28;20477;-69
2022/03/11 08:02:34;;;;;;;1.50;1.20;;;8.20;72.30;;;;;;5062930;28;20468;-71
2022/03/11 08:05:01;;;;;;;1.50;1.20;;;8.30;72.30;;;;;;5056551;28;20857;-69
2022/03/11 08:07:29;;;;;;;1.50;1.20;;;8.20;72.00;;;;;;5062795;28;20580;-71
2022/03/11 08:09:56;;;;;;;1.60;1.50;;;8.20;72.10;;;;;;5063008;28;20503;-71
2022/03/11 08:12:23;;;;;;;2.83;2.53;;;8.30;71.90;;;;;;5061673;28;20480;-70
2022/03/11 08:14:50;;;;;;;1.47;1.17;;;8.40;72.00;;;;;;5059163;28;20595;-68
2022/03/11 08:17:17;;;;;;;1.50;1.20;;;8.50;71.50;;;;;;5063228;28;20472;-69
2022/03/11 08:19:44;;;;;;;1.50;1.13;;;8.60;71.40;;;;;;5062476;28;20460;-69
2022/03/11 08:22:12;;;;;;;1.47;1.13;;;8.60;70.90;;;;;;5062724;28;20469;-70
2022/03/11 08:24:40;;;;;;;1.50;1.20;;;8.50;70.90;;;;;;5062973;28;20855;-70
2022/03/11 08:27:08;;;;;;;1.50;1.30;;;8.50;71.00;;;;;;5062913;28;20867;-69
2022/03/11 08:29:36;;;;;;;1.43;1.10;;;8.60;71.20;;;;;;5061852;28;21056;-70
2022/03/11 08:32:03;;;;;;;1.50;1.20;;;8.70;70.80;;;;;;5062510;28;21017;-69
2022/03/11 08:34:30;;;;;;;1.50;1.20;;;8.80;70.60;;;;;;5058147;28;20486;-69
2022/03/11 08:36:57;;;;;;;3.03;2.83;;;8.90;70.20;;;;;;5059260;28;20852;-70
2022/03/11 08:39:24;;;;;;;1.50;1.10;;;9.00;69.80;;;;;;5062785;28;20469;-69
2022/03/11 08:41:52;;;;;;;1.47;1.10;;;8.90;70.00;;;;;;5063295;28;20882;-68
2022/03/11 08:44:19;;;;;;;1.50;1.40;;;9.00;69.90;;;;;;5060151;28;20461;-68
2022/03/11 08:46:45;;;;;;;2.53;2.33;;;9.10;69.70;;;;;;5049979;28;20483;-68
2022/03/11 08:49:12;;;;;;;2.07;1.97;;;9.10;69.20;;;;;;5056591;28;21069;-69
2022/03/11 08:51:39;;;;;;;1.50;1.37;;;9.20;69.30;;;;;;5055070;28;20944;-69
2022/03/11 08:54:06;;;;;;;1.70;1.40;;;9.40;69.10;;;;;;5057522;28;20485;-70
2022/03/11 08:56:33;;;;;;;1.50;1.30;;;9.50;68.60;;;;;;5055123;28;20838;-69
2022/03/11 08:59:01;;;;;;;1.50;1.10;;;9.50;68.50;;;;;;5057753;28;20517;-70
2022/03/11 09:01:28;;;;;;;1.93;1.83;;;9.50;68.30;;;;;;5056004;28;20463;-69
2022/03/11 09:03:55;;;;;;;1.50;1.10;;;9.50;68.30;;;;;;5059129;28;20457;-70
2022/03/11 09:06:22;;;;;;;1.47;1.13;;;9.50;68.50;;;;;;5056736;28;20530;-69
2022/03/11 09:08:48;;;;;;;1.50;1.20;;;9.60;68.30;;;;;;5057940;28;20855;-69
2022/03/11 09:11:15;;;;;;;3.33;3.13;;;9.60;68.10;;;;;;5058322;28;20481;-69
2022/03/11 09:13:43;;;;;;;1.47;1.13;;;9.80;67.80;;;;;;5055165;28;20472;-69
2022/03/11 09:16:11;;;;;;;1.47;1.10;;;9.80;67.30;;;;;;5057874;28;20481;-69
2022/03/11 09:18:38;;;;;;;1.50;1.40;;;9.90;67.60;;;;;;5066367;28;20484;-69
2022/03/11 09:21:05;;;;;;;1.50;1.20;;;10.00;67.20;;;;;;5065690;28;20464;-69
2022/03/11 09:23:31;;;;;;;4.03;1.67;;;10.20;66.90;;;;;;5061280;28;20473;-69
2022/03/11 09:25:58;;;;;;;1.50;1.20;;;10.20;66.00;;;;;;5061988;28;20494;-69
2022/03/11 09:28:25;;;;;;;1.50;1.07;;;10.20;66.40;;;;;;5061105;28;20470;-70
2022/03/11 09:30:52;;;;;;;1.50;1.30;;;10.30;66.20;;;;;;5060140;28;20464;-70
2022/03/11 09:33:21;;;;;;;1.47;1.10;;;10.30;66.20;;;;;;5060638;28;20472;-68
2022/03/11 09:38:17;;;;;;;3.10;2.90;;;10.50;66.10;;;;;;5024188;28;20479;-72
2022/03/11 09:40:45;;;;;;;1.50;1.10;;;10.50;65.40;;;;;;5025570;28;20469;-72
2022/03/11 09:43:14;;;;;;;1.50;1.10;;;10.60;65.50;;;;;;5028279;28;20646;-75
2022/03/11 09:45:42;;;;;;;1.50;1.10;;;10.70;65.20;;;;;;5024968;28;20505;-77
2022/03/11 09:48:09;;;;;;;1.50;1.20;;;10.70;64.80;;;;;;5028842;28;20844;-76
2022/03/11 09:50:37;;;;;;;3.60;2.33;;;10.80;65.10;;;;;;5028060;28;20479;-77
2022/03/11 09:53:04;;;;;;;1.43;1.00;;;10.90;65.10;;;;;;5029207;28;20471;-77
2022/03/11 09:55:31;;;;;;;1.50;1.10;;;11.10;64.70;;;;;;5028717;28;21018;-75
2022/03/11 09:57:58;;;;;;;3.20;3.00;;;11.20;64.40;;;;;;5024893;28;20462;-74
2022/03/11 10:00:25;;;;;;;1.43;1.00;;;11.30;64.40;;;;;;5028463;28;20553;-75
2022/03/11 10:02:51;;;;;;;3.30;3.00;;;11.30;64.20;;;;;;5027598;28;20466;-74
2022/03/11 10:05:18;;;;;;;1.83;1.73;;;11.40;63.90;;;;;;5028564;28;20462;-77
2022/03/11 10:07:58;;;;;;;1.50;1.20;;;11.50;63.70;;;;;;5024554;28;21259;-73
2022/03/11 10:10:25;;;;;;;1.50;1.10;;;11.60;63.90;;;;;;5021199;28;20894;-72
2022/03/11 10:12:53;;;;;;;1.83;1.20;;;11.60;63.10;;;;;;5021204;28;20469;-74
2022/03/11 10:15:27;;;;;;;27.30;11.30;;;11.60;63.00;;;;;;5020462;28;20493;-70
2022/03/11 10:17:55;;;;;;;1.50;1.00;;;11.80;63.00;;;;;;5027465;28;20478;-70
2022/03/11 10:20:23;;;;;;;1.43;1.00;;;11.80;62.80;;;;;;5025980;28;20533;-70
2022/03/11 10:22:51;;;;;;;1.47;1.00;;;11.80;62.90;;;;;;5027157;28;20551;-70
2022/03/11 10:25:20;;;;;;;1.50;1.30;;;11.80;62.60;;;;;;5027387;28;20463;-70
2022/03/11 10:28:00;;;;;;;2.37;2.17;;;11.80;62.70;;;;;;5026496;28;20494;-72
2022/03/11 10:30:28;;;;;;;1.47;1.00;;;11.80;62.40;;;;;;5025448;28;20459;-72
2022/03/11 10:32:56;;;;;;;2.40;2.20;;;11.80;62.60;;;;;;5027210;28;20466;-72
2022/03/11 10:35:31;;;;;;;1.50;1.00;;;11.90;62.40;;;;;;5027041;28;20487;-73
2022/03/11 10:38:02;;;;;;;1.60;1.30;;;12.00;62.30;;;;;;5061460;28;21182;-73
2022/03/11 10:40:31;;;;;;;2.23;2.03;;;12.00;62.20;;;;;;5066678;28;20469;-70
2022/03/11 10:43:17;;;;;;;1.50;1.10;;;12.10;62.10;;;;;;5067465;28;20949;-76
2022/03/11 10:45:53;;;;;;;1.47;0.90;;;12.30;62.20;;;;;;5067518;28;20469;-73
2022/03/11 10:48:45;;;;;;;1.50;1.23;;;12.30;62.20;;;;;;5061068;28;20457;-75
2022/03/11 10:51:14;;;;;;;1.47;1.00;;;12.40;61.50;;;;;;5067792;28;20879;-77
2022/03/11 10:53:41;;;;;;;1.47;1.00;;;12.40;61.40;;;;;;5068042;28;20465;-77
2022/03/11 10:56:09;;;;;;;2.03;1.50;;;12.40;61.20;;;;;;5066364;28;20520;-72
2022/03/11 10:58:36;;;;;;;2.47;2.27;;;12.50;61.20;;;;;;5067639;28;20496;-76
2022/03/11 11:01:03;;;;;;;1.47;1.00;;;12.50;61.30;;;;;;5065500;28;20502;-74
2022/03/11 11:03:32;;;;;;;1.70;1.40;;;12.50;61.50;;;;;;5064214;28;20473;-75
2022/03/11 11:06:00;;;;;;;1.50;1.20;;;12.60;61.20;;;;;;5065263;28;20758;-75
2022/03/11 11:08:28;;;;;;;1.60;1.50;;;12.70;61.10;;;;;;5067006;28;20472;-75
2022/03/11 11:10:55;;;;;;;2.40;2.20;;;12.70;60.90;;;;;;5066138;28;20836;-74
2022/03/11 11:13:22;;;;;;;1.50;0.93;;;12.90;60.50;;;;;;5051581;28;20480;-76
2022/03/11 11:15:55;;;;;;;1.50;1.17;;;12.90;60.30;;;;;;5089845;28;20482;-73
2022/03/11 11:18:25;;;;;;;1.50;1.10;;;12.90;60.20;;;;;;5060867;28;20787;-79
2022/03/11 11:20:53;;;;;;;1.47;1.00;;;13.10;60.60;;;;;;5063030;28;20465;-72
2022/03/11 11:23:25;;;;;;;1.50;1.10;;;13.00;60.00;;;;;;5065409;28;20992;-76
2022/03/11 11:25:52;;;;;;;1.50;1.10;;;13.20;60.20;;;;;;5064453;28;20449;-74
2022/03/11 11:28:23;;;;;;;1.50;1.27;;;13.30;59.90;;;;;;5064754;28;20465;-74
2022/03/11 11:30:53;;;;;;;1.50;1.10;;;13.40;59.80;;;;;;5057215;28;20568;-74
2022/03/11 11:33:20;;;;;;;1.70;1.60;;;13.50;59.70;;;;;;5062170;28;20496;-74
2022/03/11 11:35:47;;;;;;;1.50;0.90;;;13.70;59.90;;;;;;5063428;28;20485;-75
2022/03/11 11:38:34;;;;;;;1.50;1.20;;;13.90;59.50;;;;;;5065368;28;20501;-72
2022/03/11 11:41:03;;;;;;;1.47;1.00;;;13.80;59.30;;;;;;5063560;28;20469;-72
2022/03/11 11:43:30;;;;;;;1.40;1.10;;;13.90;59.80;;;;;;5065486;28;20465;-73
2022/03/11 11:46:11;;;;;;;1.50;1.20;;;13.90;58.80;;;;;;5065150;28;21071;-73
2022/03/11 11:49:13;;;;;;;1.43;0.90;;;13.90;59.20;;;;;;5065374;28;20544;-72
2022/03/11 11:51:56;;;;;;;1.47;1.00;;;13.70;59.20;;;;;;5008335;28;20467;-79
2022/03/11 11:54:48;;;;;;;1.50;1.20;;;13.80;60.00;;;;;;5008970;28;20475;-76
2022/03/11 11:57:28;;;;;;;1.40;0.90;;;14.00;59.40;;;;;;5040952;28;20576;-73
2022/03/11 11:59:55;;;;;;;1.70;1.37;;;14.10;59.20;;;;;;5061339;28;20465;-72
2022/03/11 12:02:30;;;;;;;1.43;1.00;;;14.10;59.20;;;;;;5063897;28;20469;-72
2022/03/11 12:04:57;;;;;;;3.43;3.23;;;14.30;59.40;;;;;;5062042;28;20993;-71
2022/03/11 12:07:45;;;;;;;1.40;0.90;;;14.40;59.50;;;;;;5063235;28;20481;-73
2022/03/11 12:10:26;;;;;;;4.20;3.90;;;14.40;58.80;;;;;;5065711;28;20976;-72
2022/03/11 12:12:59;;;;;;;1.47;0.93;;;14.40;58.50;;;;;;5064042;28;20457;-72
2022/03/11 12:15:27;;;;;;;1.50;0.90;;;14.30;58.70;;;;;;5063978;28;20493;-72
2022/03/11 12:17:58;;;;;;;1.57;1.30;;;14.40;59.20;;;;;;5064627;28;20485;-73
2022/03/11 12:20:30;;;;;;;1.50;1.20;;;14.40;58.80;;;;;;5068442;28;20476;-73
2022/03/11 12:23:00;;;;;;;1.80;1.67;;;14.20;58.80;;;;;;5065362;28;20526;-72
2022/03/11 12:25:31;;;;;;;1.40;1.00;;;14.20;59.00;;;;;;5059861;28;20461;-72
2022/03/11 12:28:09;;;;;;;1.47;1.00;;;14.20;59.30;;;;;;5063271;28;20492;-71
2022/03/11 12:30:39;;;;;;;1.50;1.10;;;14.20;59.30;;;;;;5066122;28;20458;-72
2022/03/11 12:33:07;;;;;;;2.90;2.70;;;14.20;59.40;;;;;;5063919;28;20465;-72
2022/03/11 12:35:35;;;;;;;2.83;2.30;;;14.30;59.30;;;;;;5064293;28;21282;-73
2022/03/11 12:38:03;;;;;;;1.50;1.10;;;14.30;59.40;;;;;;5063624;28;20481;-71
2022/03/11 12:40:32;;;;;;;4.17;2.20;;;14.40;59.40;;;;;;5061197;28;21054;-72
2022/03/11 12:43:02;;;;;;;1.50;1.27;;;14.60;58.90;;;;;;5048004;28;20502;-72
2022/03/11 12:45:34;;;;;;;1.40;0.90;;;14.60;58.90;;;;;;5058622;28;20634;-71
2022/03/11 12:48:01;;;;;;;1.70;1.50;;;14.60;58.90;;;;;;5058961;28;20465;-72
2022/03/11 12:50:28;;;;;;;2.57;2.17;;;14.70;58.80;;;;;;5055443;28;20463;-72
2022/03/11 12:52:57;;;;;;;1.50;1.00;;;14.80;59.10;;;;;;5059653;28;20858;-73
2022/03/11 12:55:26;;;;;;;2.57;2.37;;;14.90;58.70;;;;;;5059901;28;20549;-72
2022/03/11 12:57:55;;;;;;;1.50;1.00;;;14.80;58.70;;;;;;5060191;28;20544;-72
2022/03/11 13:00:24;;;;;;;1.43;0.90;;;14.70;59.50;;;;;;5058828;28;20473;-72